sensor_id;sensor_type;location;lat;lon;timestamp;P1;durP1;ratioP1;P2;durP2;ratioP2
29412;SDS011;16389;50.126;8.450;2022-12-26T00:02:11;3.30;;;2.22;;
29412;SDS011;16389;50.126;8.450;2022-12-26T00:04:37;2.55;;;1.90;;
29412;SDS011;16389;50.126;8.450;2022-12-26T00:07:03;2.92;;;2.00;;
29412;SDS011;16389;50.126;8.450;2022-12-26T00:09:28;3.03;;;1.75;;
29412;SDS011;16389;50.126;8.450;2022-12-26T00:11:56;3.00;;;1.73;;
29412;SDS011;16389;50.126;8.450;2022-12-26T00:14:22;4.65;;;3.28;;
29412;SDS011;16389;50.126;8.450;2022-12-26T00:16:47;3.28;;;2.00;;
29412;SDS011;16389;50.126;8.450;2022-12-26T00:19:13;2.72;;;1.80;;
29412;SDS011;16389;50.126;8.450;2022-12-26T00:21:39;6.63;;;2.08;;
29412;SDS011;16389;50.126;8.450;2022-12-26T00:24:04;7.10;;;2.20;;
29412;SDS011;16389;50.126;8.450;2022-12-26T00:26:31;3.20;;;1.63;;
29412;SDS011;16389;50.126;8.450;2022-12-26T00:28:58;2.65;;;1.58;;
29412;SDS011;16389;50.126;8.450;2022-12-26T00:31:29;4.95;;;2.38;;
29412;SDS011;16389;50.126;8.450;2022-12-26T00:33:56;4.40;;;1.80;;
29412;SDS011;16389;50.126;8.450;2022-12-26T00:36:23;3.70;;;1.90;;
29412;SDS011;16389;50.126;8.450;2022-12-26T00:38:52;3.03;;;1.85;;
29412;SDS011;16389;50.126;8.450;2022-12-26T00:41:18;2.47;;;1.77;;
29412;SDS011;16389;50.126;8.450;2022-12-26T00:43:45;2.10;;;1.90;;
29412;SDS011;16389;50.126;8.450;2022-12-26T00:46:10;5.13;;;1.85;;
29412;SDS011;16389;50.126;8.450;2022-12-26T00:48:36;3.88;;;2.20;;
29412;SDS011;16389;50.126;8.450;2022-12-26T00:51:02;2.80;;;1.70;;
29412;SDS011;16389;50.126;8.450;2022-12-26T00:53:29;4.18;;;1.92;;
29412;SDS011;16389;50.126;8.450;2022-12-26T00:55:55;3.35;;;1.98;;
29412;SDS011;16389;50.126;8.450;2022-12-26T00:58:21;3.35;;;1.90;;
29412;SDS011;16389;50.126;8.450;2022-12-26T01:00:48;2.67;;;1.52;;
29412;SDS011;16389;50.126;8.450;2022-12-26T01:03:14;5.72;;;1.85;;
29412;SDS011;16389;50.126;8.450;2022-12-26T01:05:41;2.60;;;1.70;;
29412;SDS011;16389;50.126;8.450;2022-12-26T01:08:08;5.80;;;1.98;;
29412;SDS011;16389;50.126;8.450;2022-12-26T01:10:34;3.13;;;2.05;;
29412;SDS011;16389;50.126;8.450;2022-12-26T01:13:00;2.03;;;1.80;;
29412;SDS011;16389;50.126;8.450;2022-12-26T01:15:26;3.53;;;1.98;;
29412;SDS011;16389;50.126;8.450;2022-12-26T01:17:52;2.63;;;1.58;;
29412;SDS011;16389;50.126;8.450;2022-12-26T01:20:17;3.08;;;1.70;;
29412;SDS011;16389;50.126;8.450;2022-12-26T01:22:43;3.47;;;2.10;;
29412;SDS011;16389;50.126;8.450;2022-12-26T01:25:09;2.75;;;1.83;;
29412;SDS011;16389;50.126;8.450;2022-12-26T01:27:36;2.47;;;1.85;;
29412;SDS011;16389;50.126;8.450;2022-12-26T01:30:02;2.15;;;1.63;;
29412;SDS011;16389;50.126;8.450;2022-12-26T01:32:28;2.30;;;1.83;;
29412;SDS011;16389;50.126;8.450;2022-12-26T01:34:54;6.13;;;2.28;;
29412;SDS011;16389;50.126;8.450;2022-12-26T01:37:20;2.25;;;1.80;;
29412;SDS011;16389;50.126;8.450;2022-12-26T01:39:50;4.82;;;1.70;;
29412;SDS011;16389;50.126;8.450;2022-12-26T01:42:17;3.08;;;1.83;;
29412;SDS011;16389;50.126;8.450;2022-12-26T01:45:01;3.20;;;2.40;;
29412;SDS011;16389;50.126;8.450;2022-12-26T01:50:43;4.88;;;1.77;;
29412;SDS011;16389;50.126;8.450;2022-12-26T01:53:11;3.67;;;1.70;;
29412;SDS011;16389;50.126;8.450;2022-12-26T01:55:39;2.53;;;1.65;;
29412;SDS011;16389;50.126;8.450;2022-12-26T01:58:09;3.33;;;1.90;;
29412;SDS011;16389;50.126;8.450;2022-12-26T02:00:40;3.53;;;2.83;;
29412;SDS011;16389;50.126;8.450;2022-12-26T02:03:07;2.08;;;1.88;;
29412;SDS011;16389;50.126;8.450;2022-12-26T02:05:53;5.18;;;2.42;;
29412;SDS011;16389;50.126;8.450;2022-12-26T02:08:23;3.00;;;2.47;;
29412;SDS011;16389;50.126;8.450;2022-12-26T02:10:59;2.50;;;1.50;;
29412;SDS011;16389;50.126;8.450;2022-12-26T02:13:34;3.35;;;2.03;;
29412;SDS011;16389;50.126;8.450;2022-12-26T02:16:01;4.35;;;2.13;;
29412;SDS011;16389;50.126;8.450;2022-12-26T02:18:29;2.95;;;1.70;;
29412;SDS011;16389;50.126;8.450;2022-12-26T02:32:16;2.78;;;1.95;;
29412;SDS011;16389;50.126;8.450;2022-12-26T02:34:57;7.72;;;2.05;;
29412;SDS011;16389;50.126;8.450;2022-12-26T02:40:18;2.65;;;1.63;;
29412;SDS011;16389;50.126;8.450;2022-12-26T02:42:57;2.80;;;2.10;;
29412;SDS011;16389;50.126;8.450;2022-12-26T02:48:37;2.38;;;1.60;;
29412;SDS011;16389;50.126;8.450;2022-12-26T02:51:27;2.22;;;1.48;;
29412;SDS011;16389;50.126;8.450;2022-12-26T02:54:21;2.50;;;1.88;;
29412;SDS011;16389;50.126;8.450;2022-12-26T02:57:18;2.00;;;1.45;;
29412;SDS011;16389;50.126;8.450;2022-12-26T03:03:12;2.75;;;1.55;;
29412;SDS011;16389;50.126;8.450;2022-12-26T03:06:04;5.60;;;1.60;;
29412;SDS011;16389;50.126;8.450;2022-12-26T03:09:06;2.33;;;1.52;;
29412;SDS011;16389;50.126;8.450;2022-12-26T03:11:58;6.78;;;1.38;;
29412;SDS011;16389;50.126;8.450;2022-12-26T03:14:47;2.47;;;1.80;;
29412;SDS011;16389;50.126;8.450;2022-12-26T03:20:03;3.75;;;1.70;;
29412;SDS011;16389;50.126;8.450;2022-12-26T03:25:16;2.83;;;1.65;;
29412;SDS011;16389;50.126;8.450;2022-12-26T03:28:07;1.42;;;1.23;;
29412;SDS011;16389;50.126;8.450;2022-12-26T03:30:33;2.97;;;1.55;;
29412;SDS011;16389;50.126;8.450;2022-12-26T03:33:17;2.92;;;1.75;;
29412;SDS011;16389;50.126;8.450;2022-12-26T03:36:10;2.45;;;1.60;;
29412;SDS011;16389;50.126;8.450;2022-12-26T03:44:35;7.30;;;1.45;;
29412;SDS011;16389;50.126;8.450;2022-12-26T03:50:38;2.13;;;1.60;;
29412;SDS011;16389;50.126;8.450;2022-12-26T03:53:28;3.22;;;1.58;;
29412;SDS011;16389;50.126;8.450;2022-12-26T03:56:21;6.25;;;1.77;;
29412;SDS011;16389;50.126;8.450;2022-12-26T03:59:15;5.18;;;1.77;;
29412;SDS011;16389;50.126;8.450;2022-12-26T04:02:04;7.90;;;2.13;;
29412;SDS011;16389;50.126;8.450;2022-12-26T04:04:52;2.72;;;1.88;;
29412;SDS011;16389;50.126;8.450;2022-12-26T04:07:40;2.58;;;1.73;;
29412;SDS011;16389;50.126;8.450;2022-12-26T04:10:33;2.78;;;1.63;;
29412;SDS011;16389;50.126;8.450;2022-12-26T04:16:52;3.83;;;1.50;;
29412;SDS011;16389;50.126;8.450;2022-12-26T04:19:40;2.50;;;1.52;;
29412;SDS011;16389;50.126;8.450;2022-12-26T04:25:11;2.00;;;1.40;;
29412;SDS011;16389;50.126;8.450;2022-12-26T04:27:59;12.77;;;1.67;;
29412;SDS011;16389;50.126;8.450;2022-12-26T04:30:45;4.57;;;2.05;;
29412;SDS011;16389;50.126;8.450;2022-12-26T04:33:39;8.02;;;1.73;;
29412;SDS011;16389;50.126;8.450;2022-12-26T04:36:31;9.20;;;2.10;;
29412;SDS011;16389;50.126;8.450;2022-12-26T04:39:20;2.30;;;1.92;;
29412;SDS011;16389;50.126;8.450;2022-12-26T04:42:08;1.52;;;1.35;;
29412;SDS011;16389;50.126;8.450;2022-12-26T04:44:54;2.95;;;1.75;;
29412;SDS011;16389;50.126;8.450;2022-12-26T04:47:21;3.53;;;1.73;;
29412;SDS011;16389;50.126;8.450;2022-12-26T04:49:47;6.38;;;2.53;;
29412;SDS011;16389;50.126;8.450;2022-12-26T04:52:31;4.10;;;1.90;;
29412;SDS011;16389;50.126;8.450;2022-12-26T04:55:16;3.22;;;1.77;;
29412;SDS011;16389;50.126;8.450;2022-12-26T04:57:42;2.65;;;1.55;;
29412;SDS011;16389;50.126;8.450;2022-12-26T05:00:08;3.10;;;1.77;;
29412;SDS011;16389;50.126;8.450;2022-12-26T05:02:34;3.03;;;1.52;;
29412;SDS011;16389;50.126;8.450;2022-12-26T05:05:18;2.80;;;1.40;;
29412;SDS011;16389;50.126;8.450;2022-12-26T05:08:02;2.55;;;1.48;;
29412;SDS011;16389;50.126;8.450;2022-12-26T05:10:47;4.03;;;1.67;;
29412;SDS011;16389;50.126;8.450;2022-12-26T05:13:13;3.25;;;1.75;;
29412;SDS011;16389;50.126;8.450;2022-12-26T05:15:38;1.65;;;1.15;;
29412;SDS011;16389;50.126;8.450;2022-12-26T05:18:23;3.08;;;1.60;;
29412;SDS011;16389;50.126;8.450;2022-12-26T05:21:11;1.50;;;1.40;;
29412;SDS011;16389;50.126;8.450;2022-12-26T05:23:57;4.35;;;1.80;;
29412;SDS011;16389;50.126;8.450;2022-12-26T05:26:42;2.33;;;1.40;;
29412;SDS011;16389;50.126;8.450;2022-12-26T05:29:26;2.28;;;1.40;;
29412;SDS011;16389;50.126;8.450;2022-12-26T05:31:51;3.28;;;1.70;;
29412;SDS011;16389;50.126;8.450;2022-12-26T05:34:17;2.33;;;1.77;;
29412;SDS011;16389;50.126;8.450;2022-12-26T05:36:45;2.30;;;1.42;;
29412;SDS011;16389;50.126;8.450;2022-12-26T05:39:14;2.30;;;1.50;;
29412;SDS011;16389;50.126;8.450;2022-12-26T05:41:39;3.30;;;1.75;;
29412;SDS011;16389;50.126;8.450;2022-12-26T05:44:05;2.35;;;1.65;;
29412;SDS011;16389;50.126;8.450;2022-12-26T05:46:34;3.75;;;1.50;;
29412;SDS011;16389;50.126;8.450;2022-12-26T05:49:00;2.88;;;1.30;;
29412;SDS011;16389;50.126;8.450;2022-12-26T05:51:26;3.42;;;1.35;;
29412;SDS011;16389;50.126;8.450;2022-12-26T05:53:52;1.95;;;1.48;;
29412;SDS011;16389;50.126;8.450;2022-12-26T05:56:18;2.60;;;1.48;;
29412;SDS011;16389;50.126;8.450;2022-12-26T05:58:44;4.35;;;1.40;;
29412;SDS011;16389;50.126;8.450;2022-12-26T06:01:17;2.08;;;1.25;;
29412;SDS011;16389;50.126;8.450;2022-12-26T06:03:48;1.98;;;1.48;;
29412;SDS011;16389;50.126;8.450;2022-12-26T06:06:15;2.08;;;1.10;;
29412;SDS011;16389;50.126;8.450;2022-12-26T06:08:41;4.55;;;1.85;;
29412;SDS011;16389;50.126;8.450;2022-12-26T06:11:08;2.55;;;1.70;;
29412;SDS011;16389;50.126;8.450;2022-12-26T06:13:35;1.80;;;1.33;;
29412;SDS011;16389;50.126;8.450;2022-12-26T06:16:05;1.63;;;1.38;;
29412;SDS011;16389;50.126;8.450;2022-12-26T06:18:32;3.67;;;1.67;;
29412;SDS011;16389;50.126;8.450;2022-12-26T06:20:58;2.63;;;1.50;;
29412;SDS011;16389;50.126;8.450;2022-12-26T06:23:27;2.50;;;1.58;;
29412;SDS011;16389;50.126;8.450;2022-12-26T06:25:54;2.35;;;1.23;;
29412;SDS011;16389;50.126;8.450;2022-12-26T06:28:20;2.45;;;1.13;;
29412;SDS011;16389;50.126;8.450;2022-12-26T06:30:47;3.60;;;1.67;;
29412;SDS011;16389;50.126;8.450;2022-12-26T06:33:13;2.10;;;1.30;;
29412;SDS011;16389;50.126;8.450;2022-12-26T06:35:39;4.07;;;1.80;;
29412;SDS011;16389;50.126;8.450;2022-12-26T06:38:04;6.97;;;1.42;;
29412;SDS011;16389;50.126;8.450;2022-12-26T06:40:30;2.78;;;1.27;;
29412;SDS011;16389;50.126;8.450;2022-12-26T06:42:55;1.63;;;1.15;;
29412;SDS011;16389;50.126;8.450;2022-12-26T06:45:21;1.85;;;1.17;;
29412;SDS011;16389;50.126;8.450;2022-12-26T06:47:46;5.47;;;2.00;;
29412;SDS011;16389;50.126;8.450;2022-12-26T06:50:12;3.22;;;1.92;;
29412;SDS011;16389;50.126;8.450;2022-12-26T06:52:38;2.33;;;1.13;;
29412;SDS011;16389;50.126;8.450;2022-12-26T06:55:03;1.83;;;1.35;;
29412;SDS011;16389;50.126;8.450;2022-12-26T06:57:30;2.58;;;1.00;;
29412;SDS011;16389;50.126;8.450;2022-12-26T06:59:55;1.50;;;1.30;;
29412;SDS011;16389;50.126;8.450;2022-12-26T07:02:21;2.10;;;1.38;;
29412;SDS011;16389;50.126;8.450;2022-12-26T07:04:47;1.77;;;1.45;;
29412;SDS011;16389;50.126;8.450;2022-12-26T07:07:12;2.65;;;1.27;;
29412;SDS011;16389;50.126;8.450;2022-12-26T07:09:38;1.60;;;1.10;;
29412;SDS011;16389;50.126;8.450;2022-12-26T07:12:03;2.65;;;1.30;;
29412;SDS011;16389;50.126;8.450;2022-12-26T07:14:29;5.03;;;1.42;;
29412;SDS011;16389;50.126;8.450;2022-12-26T07:16:55;1.42;;;1.20;;
29412;SDS011;16389;50.126;8.450;2022-12-26T07:19:20;1.92;;;1.27;;
29412;SDS011;16389;50.126;8.450;2022-12-26T07:21:46;5.90;;;1.50;;
29412;SDS011;16389;50.126;8.450;2022-12-26T07:24:15;1.10;;;1.05;;
29412;SDS011;16389;50.126;8.450;2022-12-26T07:26:43;2.13;;;1.67;;
29412;SDS011;16389;50.126;8.450;2022-12-26T07:29:09;2.10;;;1.25;;
29412;SDS011;16389;50.126;8.450;2022-12-26T07:31:35;1.40;;;0.98;;
29412;SDS011;16389;50.126;8.450;2022-12-26T07:34:01;2.60;;;1.52;;
29412;SDS011;16389;50.126;8.450;2022-12-26T07:36:27;2.42;;;1.30;;
29412;SDS011;16389;50.126;8.450;2022-12-26T07:38:52;1.70;;;1.15;;
29412;SDS011;16389;50.126;8.450;2022-12-26T07:41:18;2.70;;;1.77;;
29412;SDS011;16389;50.126;8.450;2022-12-26T07:44:02;2.88;;;1.52;;
29412;SDS011;16389;50.126;8.450;2022-12-26T07:46:29;5.20;;;1.30;;
29412;SDS011;16389;50.126;8.450;2022-12-26T07:48:55;1.60;;;1.40;;
29412;SDS011;16389;50.126;8.450;2022-12-26T07:51:21;2.60;;;1.60;;
29412;SDS011;16389;50.126;8.450;2022-12-26T07:53:47;7.72;;;1.33;;
29412;SDS011;16389;50.126;8.450;2022-12-26T07:56:13;5.13;;;2.10;;
29412;SDS011;16389;50.126;8.450;2022-12-26T07:58:38;4.07;;;1.75;;
29412;SDS011;16389;50.126;8.450;2022-12-26T08:01:04;2.55;;;1.70;;
29412;SDS011;16389;50.126;8.450;2022-12-26T08:03:30;2.65;;;1.70;;
29412;SDS011;16389;50.126;8.450;2022-12-26T08:05:57;5.85;;;3.08;;
29412;SDS011;16389;50.126;8.450;2022-12-26T08:08:23;2.97;;;1.90;;
29412;SDS011;16389;50.126;8.450;2022-12-26T08:10:56;2.20;;;1.63;;
29412;SDS011;16389;50.126;8.450;2022-12-26T08:13:23;3.03;;;2.00;;
29412;SDS011;16389;50.126;8.450;2022-12-26T08:15:49;3.20;;;2.05;;
29412;SDS011;16389;50.126;8.450;2022-12-26T08:18:14;2.17;;;1.40;;
29412;SDS011;16389;50.126;8.450;2022-12-26T08:20:40;11.07;;;2.70;;
29412;SDS011;16389;50.126;8.450;2022-12-26T08:23:06;7.75;;;2.17;;
29412;SDS011;16389;50.126;8.450;2022-12-26T08:25:31;3.65;;;2.60;;
29412;SDS011;16389;50.126;8.450;2022-12-26T08:27:57;5.72;;;2.10;;
29412;SDS011;16389;50.126;8.450;2022-12-26T08:30:23;4.43;;;2.45;;
29412;SDS011;16389;50.126;8.450;2022-12-26T08:32:49;4.10;;;1.85;;
29412;SDS011;16389;50.126;8.450;2022-12-26T08:35:15;2.35;;;1.80;;
29412;SDS011;16389;50.126;8.450;2022-12-26T08:37:41;2.15;;;1.75;;
29412;SDS011;16389;50.126;8.450;2022-12-26T08:40:07;3.72;;;2.03;;
29412;SDS011;16389;50.126;8.450;2022-12-26T08:42:33;5.13;;;2.25;;
29412;SDS011;16389;50.126;8.450;2022-12-26T08:44:58;3.45;;;2.13;;
29412;SDS011;16389;50.126;8.450;2022-12-26T08:47:24;3.70;;;2.20;;
29412;SDS011;16389;50.126;8.450;2022-12-26T08:49:51;3.50;;;1.95;;
29412;SDS011;16389;50.126;8.450;2022-12-26T08:52:17;3.42;;;2.17;;
29412;SDS011;16389;50.126;8.450;2022-12-26T08:54:43;3.92;;;1.80;;
29412;SDS011;16389;50.126;8.450;2022-12-26T08:57:08;4.85;;;2.45;;
29412;SDS011;16389;50.126;8.450;2022-12-26T08:59:34;2.80;;;1.70;;
29412;SDS011;16389;50.126;8.450;2022-12-26T09:02:00;4.43;;;1.65;;
29412;SDS011;16389;50.126;8.450;2022-12-26T09:04:26;2.78;;;2.05;;
29412;SDS011;16389;50.126;8.450;2022-12-26T09:06:51;4.07;;;1.77;;
29412;SDS011;16389;50.126;8.450;2022-12-26T09:09:17;3.60;;;1.98;;
29412;SDS011;16389;50.126;8.450;2022-12-26T09:11:42;4.28;;;1.75;;
29412;SDS011;16389;50.126;8.450;2022-12-26T09:14:08;3.22;;;1.73;;
29412;SDS011;16389;50.126;8.450;2022-12-26T09:16:37;3.63;;;1.67;;
29412;SDS011;16389;50.126;8.450;2022-12-26T09:19:06;4.15;;;2.17;;
29412;SDS011;16389;50.126;8.450;2022-12-26T09:21:33;4.32;;;1.88;;
29412;SDS011;16389;50.126;8.450;2022-12-26T09:24:00;9.25;;;1.83;;
29412;SDS011;16389;50.126;8.450;2022-12-26T09:26:28;2.43;;;1.47;;
29412;SDS011;16389;50.126;8.450;2022-12-26T09:28:54;3.90;;;2.42;;
29412;SDS011;16389;50.126;8.450;2022-12-26T09:31:22;4.03;;;1.60;;
29412;SDS011;16389;50.126;8.450;2022-12-26T09:33:48;2.95;;;1.63;;
29412;SDS011;16389;50.126;8.450;2022-12-26T09:36:15;2.97;;;1.88;;
29412;SDS011;16389;50.126;8.450;2022-12-26T09:38:43;6.72;;;2.45;;
29412;SDS011;16389;50.126;8.450;2022-12-26T09:43:46;4.75;;;2.13;;
29412;SDS011;16389;50.126;8.450;2022-12-26T09:49:11;9.77;;;4.75;;
29412;SDS011;16389;50.126;8.450;2022-12-26T09:51:42;5.85;;;3.65;;
29412;SDS011;16389;50.126;8.450;2022-12-26T09:54:25;4.15;;;2.13;;
29412;SDS011;16389;50.126;8.450;2022-12-26T09:56:52;3.13;;;1.65;;
29412;SDS011;16389;50.126;8.450;2022-12-26T09:59:18;4.05;;;2.38;;
29412;SDS011;16389;50.126;8.450;2022-12-26T10:01:48;6.35;;;1.67;;
29412;SDS011;16389;50.126;8.450;2022-12-26T10:04:23;1.95;;;1.42;;
29412;SDS011;16389;50.126;8.450;2022-12-26T10:06:53;2.08;;;1.70;;
29412;SDS011;16389;50.126;8.450;2022-12-26T10:15:14;1.60;;;1.17;;
29412;SDS011;16389;50.126;8.450;2022-12-26T10:18:06;2.28;;;1.20;;
29412;SDS011;16389;50.126;8.450;2022-12-26T10:23:39;3.28;;;1.58;;
29412;SDS011;16389;50.126;8.450;2022-12-26T10:26:10;4.80;;;1.75;;
29412;SDS011;16389;50.126;8.450;2022-12-26T10:29:23;2.00;;;1.05;;
29412;SDS011;16389;50.126;8.450;2022-12-26T10:31:48;1.42;;;1.20;;
29412;SDS011;16389;50.126;8.450;2022-12-26T10:37:25;1.45;;;1.08;;
29412;SDS011;16389;50.126;8.450;2022-12-26T10:42:33;3.65;;;1.10;;
29412;SDS011;16389;50.126;8.450;2022-12-26T10:45:01;1.58;;;1.10;;
29412;SDS011;16389;50.126;8.450;2022-12-26T10:47:48;1.35;;;0.88;;
29412;SDS011;16389;50.126;8.450;2022-12-26T10:50:19;2.83;;;1.20;;
29412;SDS011;16389;50.126;8.450;2022-12-26T10:52:48;1.83;;;1.00;;
29412;SDS011;16389;50.126;8.450;2022-12-26T10:55:15;7.80;;;1.52;;
29412;SDS011;16389;50.126;8.450;2022-12-26T10:57:45;6.00;;;1.42;;
29412;SDS011;16389;50.126;8.450;2022-12-26T11:00:17;1.83;;;0.88;;
29412;SDS011;16389;50.126;8.450;2022-12-26T11:02:45;2.58;;;1.15;;
29412;SDS011;16389;50.126;8.450;2022-12-26T11:05:30;1.67;;;1.10;;
29412;SDS011;16389;50.126;8.450;2022-12-26T11:08:08;0.80;;;0.63;;
29412;SDS011;16389;50.126;8.450;2022-12-26T11:10:44;1.75;;;0.90;;
29412;SDS011;16389;50.126;8.450;2022-12-26T11:13:30;1.23;;;0.80;;
29412;SDS011;16389;50.126;8.450;2022-12-26T11:16:13;3.00;;;1.02;;
29412;SDS011;16389;50.126;8.450;2022-12-26T11:18:59;0.60;;;0.60;;
29412;SDS011;16389;50.126;8.450;2022-12-26T11:21:26;1.40;;;0.90;;
29412;SDS011;16389;50.126;8.450;2022-12-26T11:24:15;1.10;;;1.00;;
29412;SDS011;16389;50.126;8.450;2022-12-26T11:26:39;0.98;;;0.65;;
29412;SDS011;16389;50.126;8.450;2022-12-26T11:29:13;0.60;;;0.40;;
29412;SDS011;16389;50.126;8.450;2022-12-26T11:31:57;1.00;;;0.90;;
29412;SDS011;16389;50.126;8.450;2022-12-26T11:34:37;1.45;;;0.60;;
29412;SDS011;16389;50.126;8.450;2022-12-26T11:37:22;1.52;;;0.70;;
29412;SDS011;16389;50.126;8.450;2022-12-26T11:39:50;1.30;;;0.95;;
29412;SDS011;16389;50.126;8.450;2022-12-26T11:42:17;0.63;;;0.47;;
29412;SDS011;16389;50.126;8.450;2022-12-26T11:44:45;2.33;;;0.60;;
29412;SDS011;16389;50.126;8.450;2022-12-26T11:47:14;0.73;;;0.60;;
29412;SDS011;16389;50.126;8.450;2022-12-26T11:55:22;0.50;;;0.50;;
29412;SDS011;16389;50.126;8.450;2022-12-26T12:01:11;0.60;;;0.60;;
29412;SDS011;16389;50.126;8.450;2022-12-26T12:03:38;0.88;;;0.57;;
29412;SDS011;16389;50.126;8.450;2022-12-26T12:17:00;1.90;;;0.50;;
29412;SDS011;16389;50.126;8.450;2022-12-26T12:19:37;1.70;;;0.50;;
29412;SDS011;16389;50.126;8.450;2022-12-26T12:30:56;0.60;;;0.50;;
29412;SDS011;16389;50.126;8.450;2022-12-26T12:33:48;2.40;;;0.50;;
29412;SDS011;16389;50.126;8.450;2022-12-26T12:39:58;0.70;;;0.52;;
29412;SDS011;16389;50.126;8.450;2022-12-26T12:42:42;2.30;;;0.60;;
29412;SDS011;16389;50.126;8.450;2022-12-26T12:45:33;0.65;;;0.50;;
29412;SDS011;16389;50.126;8.450;2022-12-26T12:50:57;0.52;;;0.50;;
29412;SDS011;16389;50.126;8.450;2022-12-26T12:58:50;0.50;;;0.43;;
29412;SDS011;16389;50.126;8.450;2022-12-26T13:01:19;2.95;;;0.47;;
29412;SDS011;16389;50.126;8.450;2022-12-26T13:03:53;0.60;;;0.50;;
29412;SDS011;16389;50.126;8.450;2022-12-26T13:06:28;0.65;;;0.40;;
29412;SDS011;16389;50.126;8.450;2022-12-26T13:09:02;0.90;;;0.63;;
29412;SDS011;16389;50.126;8.450;2022-12-26T13:11:36;0.65;;;0.63;;
29412;SDS011;16389;50.126;8.450;2022-12-26T13:14:06;0.88;;;0.60;;
29412;SDS011;16389;50.126;8.450;2022-12-26T13:16:42;1.35;;;0.50;;
29412;SDS011;16389;50.126;8.450;2022-12-26T13:19:28;2.70;;;0.50;;
29412;SDS011;16389;50.126;8.450;2022-12-26T13:22:02;1.83;;;0.40;;
29412;SDS011;16389;50.126;8.450;2022-12-26T13:24:32;1.67;;;0.55;;
29412;SDS011;16389;50.126;8.450;2022-12-26T13:27:04;1.48;;;0.50;;
29412;SDS011;16389;50.126;8.450;2022-12-26T13:29:42;2.72;;;0.60;;
29412;SDS011;16389;50.126;8.450;2022-12-26T13:34:47;2.13;;;0.40;;
29412;SDS011;16389;50.126;8.450;2022-12-26T13:40:25;1.02;;;0.63;;
29412;SDS011;16389;50.126;8.450;2022-12-26T13:45:45;1.42;;;0.88;;
29412;SDS011;16389;50.126;8.450;2022-12-26T13:50:49;0.50;;;0.50;;
29412;SDS011;16389;50.126;8.450;2022-12-26T13:56:09;2.88;;;0.88;;
29412;SDS011;16389;50.126;8.450;2022-12-26T14:07:06;0.28;;;0.28;;
29412;SDS011;16389;50.126;8.450;2022-12-26T14:15:01;3.10;;;0.30;;
29412;SDS011;16389;50.126;8.450;2022-12-26T14:20:26;0.30;;;0.30;;
29412;SDS011;16389;50.126;8.450;2022-12-26T14:34:05;0.68;;;0.30;;
29412;SDS011;16389;50.126;8.450;2022-12-26T14:37:01;0.20;;;0.20;;
29412;SDS011;16389;50.126;8.450;2022-12-26T14:42:23;0.52;;;0.40;;
29412;SDS011;16389;50.126;8.450;2022-12-26T14:47:52;0.57;;;0.30;;
29412;SDS011;16389;50.126;8.450;2022-12-26T14:55:55;1.00;;;0.30;;
29412;SDS011;16389;50.126;8.450;2022-12-26T15:12:01;0.38;;;0.38;;
29412;SDS011;16389;50.126;8.450;2022-12-26T15:17:33;0.70;;;0.50;;
29412;SDS011;16389;50.126;8.450;2022-12-26T15:23:30;1.75;;;0.40;;
29412;SDS011;16389;50.126;8.450;2022-12-26T15:26:24;0.20;;;0.20;;
29412;SDS011;16389;50.126;8.450;2022-12-26T15:37:10;0.30;;;0.30;;
29412;SDS011;16389;50.126;8.450;2022-12-26T15:39:52;0.20;;;0.20;;
29412;SDS011;16389;50.126;8.450;2022-12-26T15:45:48;0.22;;;0.22;;
29412;SDS011;16389;50.126;8.450;2022-12-26T15:51:05;2.80;;;1.38;;
29412;SDS011;16389;50.126;8.450;2022-12-26T15:53:48;0.70;;;0.35;;
29412;SDS011;16389;50.126;8.450;2022-12-26T16:11:41;1.08;;;0.50;;
29412;SDS011;16389;50.126;8.450;2022-12-26T16:14:33;0.20;;;0.20;;
29412;SDS011;16389;50.126;8.450;2022-12-26T16:17:36;0.32;;;0.30;;
29412;SDS011;16389;50.126;8.450;2022-12-26T16:19:54;1.02;;;0.40;;
29412;SDS011;16389;50.126;8.450;2022-12-26T16:22:37;1.38;;;1.20;;
29412;SDS011;16389;50.126;8.450;2022-12-26T16:27:48;0.35;;;0.35;;
29412;SDS011;16389;50.126;8.450;2022-12-26T16:32:50;0.60;;;0.57;;
29412;SDS011;16389;50.126;8.450;2022-12-26T16:37:45;0.50;;;0.50;;
29412;SDS011;16389;50.126;8.450;2022-12-26T16:42:45;1.13;;;0.50;;
29412;SDS011;16389;50.126;8.450;2022-12-26T16:45:20;1.48;;;0.38;;
29412;SDS011;16389;50.126;8.450;2022-12-26T16:47:47;0.35;;;0.35;;
29412;SDS011;16389;50.126;8.450;2022-12-26T16:50:18;0.52;;;0.25;;
29412;SDS011;16389;50.126;8.450;2022-12-26T16:52:46;1.52;;;0.40;;
29412;SDS011;16389;50.126;8.450;2022-12-26T17:00:59;0.20;;;0.20;;
29412;SDS011;16389;50.126;8.450;2022-12-26T17:03:50;0.45;;;0.20;;
29412;SDS011;16389;50.126;8.450;2022-12-26T17:06:28;0.30;;;0.30;;
29412;SDS011;16389;50.126;8.450;2022-12-26T17:08:56;0.30;;;0.20;;
29412;SDS011;16389;50.126;8.450;2022-12-26T17:11:30;2.28;;;0.22;;
29412;SDS011;16389;50.126;8.450;2022-12-26T17:13:57;0.20;;;0.20;;
29412;SDS011;16389;50.126;8.450;2022-12-26T17:16:26;3.70;;;0.30;;
29412;SDS011;16389;50.126;8.450;2022-12-26T17:18:55;1.52;;;0.20;;
29412;SDS011;16389;50.126;8.450;2022-12-26T17:21:35;0.45;;;0.43;;
29412;SDS011;16389;50.126;8.450;2022-12-26T17:24:10;0.47;;;0.20;;
29412;SDS011;16389;50.126;8.450;2022-12-26T17:26:48;0.45;;;0.30;;
29412;SDS011;16389;50.126;8.450;2022-12-26T17:29:35;0.30;;;0.30;;
29412;SDS011;16389;50.126;8.450;2022-12-26T17:32:23;1.27;;;0.40;;
29412;SDS011;16389;50.126;8.450;2022-12-26T17:34:50;0.60;;;0.60;;
29412;SDS011;16389;50.126;8.450;2022-12-26T17:37:18;0.50;;;0.43;;
29412;SDS011;16389;50.126;8.450;2022-12-26T17:39:50;0.30;;;0.30;;
29412;SDS011;16389;50.126;8.450;2022-12-26T17:42:17;0.20;;;0.20;;
29412;SDS011;16389;50.126;8.450;2022-12-26T17:44:43;0.63;;;0.35;;
29412;SDS011;16389;50.126;8.450;2022-12-26T17:49:40;0.57;;;0.57;;
29412;SDS011;16389;50.126;8.450;2022-12-26T17:52:07;1.55;;;0.35;;
29412;SDS011;16389;50.126;8.450;2022-12-26T17:54:34;0.30;;;0.30;;
29412;SDS011;16389;50.126;8.450;2022-12-26T17:57:00;0.75;;;0.40;;
29412;SDS011;16389;50.126;8.450;2022-12-26T17:59:26;0.20;;;0.20;;
29412;SDS011;16389;50.126;8.450;2022-12-26T18:01:51;0.40;;;0.40;;
29412;SDS011;16389;50.126;8.450;2022-12-26T18:04:17;0.68;;;0.35;;
29412;SDS011;16389;50.126;8.450;2022-12-26T18:06:42;0.60;;;0.35;;
29412;SDS011;16389;50.126;8.450;2022-12-26T18:09:11;2.22;;;0.40;;
29412;SDS011;16389;50.126;8.450;2022-12-26T18:11:48;1.00;;;0.40;;
29412;SDS011;16389;50.126;8.450;2022-12-26T18:14:14;0.35;;;0.30;;
29412;SDS011;16389;50.126;8.450;2022-12-26T18:16:40;0.50;;;0.50;;
29412;SDS011;16389;50.126;8.450;2022-12-26T18:19:07;0.52;;;0.40;;
29412;SDS011;16389;50.126;8.450;2022-12-26T18:21:38;0.60;;;0.50;;
29412;SDS011;16389;50.126;8.450;2022-12-26T18:24:03;0.45;;;0.45;;
29412;SDS011;16389;50.126;8.450;2022-12-26T18:26:29;0.40;;;0.40;;
29412;SDS011;16389;50.126;8.450;2022-12-26T18:28:55;0.40;;;0.40;;
29412;SDS011;16389;50.126;8.450;2022-12-26T18:31:22;1.05;;;0.45;;
29412;SDS011;16389;50.126;8.450;2022-12-26T18:33:49;0.80;;;0.50;;
29412;SDS011;16389;50.126;8.450;2022-12-26T18:36:15;0.40;;;0.40;;
29412;SDS011;16389;50.126;8.450;2022-12-26T18:38:42;0.40;;;0.40;;
29412;SDS011;16389;50.126;8.450;2022-12-26T18:41:15;0.38;;;0.30;;
29412;SDS011;16389;50.126;8.450;2022-12-26T18:43:41;1.63;;;0.50;;
29412;SDS011;16389;50.126;8.450;2022-12-26T18:46:16;0.65;;;0.50;;
29412;SDS011;16389;50.126;8.450;2022-12-26T18:48:48;2.65;;;0.57;;
29412;SDS011;16389;50.126;8.450;2022-12-26T18:51:14;1.88;;;0.38;;
29412;SDS011;16389;50.126;8.450;2022-12-26T18:53:40;1.10;;;0.50;;
29412;SDS011;16389;50.126;8.450;2022-12-26T18:56:06;0.40;;;0.40;;
29412;SDS011;16389;50.126;8.450;2022-12-26T18:58:36;0.85;;;0.50;;
29412;SDS011;16389;50.126;8.450;2022-12-26T19:01:02;0.40;;;0.40;;
29412;SDS011;16389;50.126;8.450;2022-12-26T19:03:28;2.70;;;0.38;;